sensor_id;sensor_type;location;lat;lon;timestamp;P1;durP1;ratioP1;P2;durP2;ratioP2
61471;SDS011;47337;54.068;12.114;2022-08-19T00:01:32;28.85;;;23.67;;
61471;SDS011;47337;54.068;12.114;2022-08-19T00:03:59;32.88;;;25.08;;
61471;SDS011;47337;54.068;12.114;2022-08-19T00:06:31;31.88;;;23.80;;
61471;SDS011;47337;54.068;12.114;2022-08-19T00:08:59;28.10;;;22.23;;
61471;SDS011;47337;54.068;12.114;2022-08-19T00:11:25;29.30;;;23.65;;
61471;SDS011;47337;54.068;12.114;2022-08-19T00:13:52;28.83;;;23.20;;
61471;SDS011;47337;54.068;12.114;2022-08-19T00:16:22;31.23;;;24.75;;
61471;SDS011;47337;54.068;12.114;2022-08-19T00:18:49;30.10;;;23.65;;
61471;SDS011;47337;54.068;12.114;2022-08-19T00:21:14;31.45;;;24.63;;
61471;SDS011;47337;54.068;12.114;2022-08-19T00:23:40;30.58;;;23.23;;
61471;SDS011;47337;54.068;12.114;2022-08-19T00:26:08;29.52;;;23.00;;
61471;SDS011;47337;54.068;12.114;2022-08-19T00:28:35;31.02;;;23.75;;
61471;SDS011;47337;54.068;12.114;2022-08-19T00:31:05;27.92;;;24.08;;
61471;SDS011;47337;54.068;12.114;2022-08-19T00:33:32;30.42;;;24.95;;
61471;SDS011;47337;54.068;12.114;2022-08-19T00:35:59;32.88;;;25.85;;
61471;SDS011;47337;54.068;12.114;2022-08-19T00:38:25;32.35;;;25.73;;
61471;SDS011;47337;54.068;12.114;2022-08-19T00:40:50;28.70;;;23.70;;
61471;SDS011;47337;54.068;12.114;2022-08-19T00:43:19;30.40;;;22.85;;
61471;SDS011;47337;54.068;12.114;2022-08-19T00:45:50;33.45;;;24.98;;
61471;SDS011;47337;54.068;12.114;2022-08-19T00:48:19;33.97;;;25.80;;
61471;SDS011;47337;54.068;12.114;2022-08-19T00:50:45;34.13;;;25.92;;
61471;SDS011;47337;54.068;12.114;2022-08-19T00:53:15;32.03;;;24.98;;
61471;SDS011;47337;54.068;12.114;2022-08-19T00:55:47;28.67;;;23.40;;
61471;SDS011;47337;54.068;12.114;2022-08-19T00:58:15;32.42;;;27.00;;
61471;SDS011;47337;54.068;12.114;2022-08-19T01:00:42;31.55;;;25.88;;
61471;SDS011;47337;54.068;12.114;2022-08-19T01:03:11;31.85;;;26.27;;
61471;SDS011;47337;54.068;12.114;2022-08-19T01:05:39;31.90;;;25.83;;
61471;SDS011;47337;54.068;12.114;2022-08-19T01:08:07;33.05;;;27.30;;
61471;SDS011;47337;54.068;12.114;2022-08-19T01:10:35;33.00;;;26.67;;
61471;SDS011;47337;54.068;12.114;2022-08-19T01:13:07;31.42;;;25.98;;
61471;SDS011;47337;54.068;12.114;2022-08-19T01:15:35;36.85;;;27.27;;
61471;SDS011;47337;54.068;12.114;2022-08-19T01:18:12;33.53;;;27.42;;
61471;SDS011;47337;54.068;12.114;2022-08-19T01:20:40;34.10;;;27.10;;
61471;SDS011;47337;54.068;12.114;2022-08-19T01:23:07;34.88;;;27.05;;
61471;SDS011;47337;54.068;12.114;2022-08-19T01:25:35;33.35;;;26.35;;
61471;SDS011;47337;54.068;12.114;2022-08-19T01:28:06;34.97;;;27.88;;
61471;SDS011;47337;54.068;12.114;2022-08-19T01:30:33;34.70;;;27.85;;
61471;SDS011;47337;54.068;12.114;2022-08-19T01:33:00;33.33;;;27.10;;
61471;SDS011;47337;54.068;12.114;2022-08-19T01:35:27;36.92;;;27.75;;
61471;SDS011;47337;54.068;12.114;2022-08-19T01:40:31;35.70;;;27.77;;
61471;SDS011;47337;54.068;12.114;2022-08-19T01:42:58;42.35;;;29.48;;
61471;SDS011;47337;54.068;12.114;2022-08-19T01:45:25;37.85;;;29.60;;
61471;SDS011;47337;54.068;12.114;2022-08-19T01:47:51;34.72;;;25.92;;
61471;SDS011;47337;54.068;12.114;2022-08-19T01:50:20;40.05;;;29.20;;
61471;SDS011;47337;54.068;12.114;2022-08-19T01:52:46;38.08;;;29.00;;
61471;SDS011;47337;54.068;12.114;2022-08-19T01:55:13;42.33;;;30.88;;
61471;SDS011;47337;54.068;12.114;2022-08-19T01:57:41;42.03;;;30.58;;
61471;SDS011;47337;54.068;12.114;2022-08-19T02:00:10;43.03;;;32.95;;
61471;SDS011;47337;54.068;12.114;2022-08-19T02:02:39;43.25;;;30.13;;
61471;SDS011;47337;54.068;12.114;2022-08-19T02:05:05;39.92;;;31.20;;
61471;SDS011;47337;54.068;12.114;2022-08-19T02:07:32;43.25;;;31.98;;
61471;SDS011;47337;54.068;12.114;2022-08-19T02:10:07;45.15;;;34.22;;
61471;SDS011;47337;54.068;12.114;2022-08-19T02:12:37;49.17;;;34.70;;
61471;SDS011;47337;54.068;12.114;2022-08-19T02:15:03;51.70;;;34.10;;
61471;SDS011;47337;54.068;12.114;2022-08-19T02:17:29;48.85;;;35.13;;
61471;SDS011;47337;54.068;12.114;2022-08-19T02:19:56;53.78;;;38.08;;
61471;SDS011;47337;54.068;12.114;2022-08-19T02:22:21;50.67;;;35.28;;
61471;SDS011;47337;54.068;12.114;2022-08-19T02:24:48;54.15;;;36.03;;
61471;SDS011;47337;54.068;12.114;2022-08-19T02:27:16;53.60;;;36.30;;
61471;SDS011;47337;54.068;12.114;2022-08-19T02:29:41;55.28;;;37.17;;
61471;SDS011;47337;54.068;12.114;2022-08-19T02:32:10;53.58;;;34.97;;
61471;SDS011;47337;54.068;12.114;2022-08-19T02:34:35;53.40;;;35.92;;
61471;SDS011;47337;54.068;12.114;2022-08-19T02:37:00;56.30;;;37.78;;
61471;SDS011;47337;54.068;12.114;2022-08-19T02:39:26;55.53;;;36.95;;
61471;SDS011;47337;54.068;12.114;2022-08-19T02:41:51;52.92;;;34.67;;
61471;SDS011;47337;54.068;12.114;2022-08-19T02:44:20;51.53;;;35.33;;
61471;SDS011;47337;54.068;12.114;2022-08-19T02:46:47;54.00;;;36.28;;
61471;SDS011;47337;54.068;12.114;2022-08-19T02:49:15;53.38;;;33.70;;
61471;SDS011;47337;54.068;12.114;2022-08-19T02:51:46;52.60;;;35.38;;
61471;SDS011;47337;54.068;12.114;2022-08-19T02:54:14;54.40;;;36.10;;
61471;SDS011;47337;54.068;12.114;2022-08-19T02:56:40;53.17;;;36.75;;
61471;SDS011;47337;54.068;12.114;2022-08-19T02:59:06;58.65;;;37.13;;
61471;SDS011;47337;54.068;12.114;2022-08-19T03:01:33;54.47;;;36.17;;
61471;SDS011;47337;54.068;12.114;2022-08-19T03:04:05;51.58;;;34.78;;
61471;SDS011;47337;54.068;12.114;2022-08-19T03:06:38;49.80;;;34.17;;
61471;SDS011;47337;54.068;12.114;2022-08-19T03:09:05;50.53;;;34.17;;
61471;SDS011;47337;54.068;12.114;2022-08-19T03:11:31;54.22;;;34.08;;
61471;SDS011;47337;54.068;12.114;2022-08-19T03:13:57;59.65;;;37.53;;
61471;SDS011;47337;54.068;12.114;2022-08-19T03:16:24;59.35;;;36.85;;
61471;SDS011;47337;54.068;12.114;2022-08-19T03:18:52;54.50;;;36.55;;
61471;SDS011;47337;54.068;12.114;2022-08-19T03:21:24;59.28;;;36.50;;
61471;SDS011;47337;54.068;12.114;2022-08-19T03:23:55;60.33;;;37.38;;
61471;SDS011;47337;54.068;12.114;2022-08-19T03:26:27;54.55;;;36.17;;
61471;SDS011;47337;54.068;12.114;2022-08-19T03:28:53;57.15;;;35.90;;
61471;SDS011;47337;54.068;12.114;2022-08-19T03:31:19;71.20;;;40.50;;
61471;SDS011;47337;54.068;12.114;2022-08-19T03:33:47;58.90;;;37.38;;
61471;SDS011;47337;54.068;12.114;2022-08-19T03:36:18;57.97;;;35.83;;
61471;SDS011;47337;54.068;12.114;2022-08-19T03:38:46;63.05;;;37.13;;
61471;SDS011;47337;54.068;12.114;2022-08-19T03:41:17;67.70;;;37.10;;
61471;SDS011;47337;54.068;12.114;2022-08-19T03:43:45;63.80;;;38.47;;
61471;SDS011;47337;54.068;12.114;2022-08-19T03:46:21;62.95;;;37.60;;
61471;SDS011;47337;54.068;12.114;2022-08-19T03:48:52;61.90;;;36.50;;
61471;SDS011;47337;54.068;12.114;2022-08-19T03:51:20;59.88;;;34.90;;
61471;SDS011;47337;54.068;12.114;2022-08-19T03:53:58;65.03;;;36.65;;
61471;SDS011;47337;54.068;12.114;2022-08-19T03:56:28;68.10;;;37.22;;
61471;SDS011;47337;54.068;12.114;2022-08-19T03:58:55;70.28;;;39.10;;
61471;SDS011;47337;54.068;12.114;2022-08-19T04:01:23;71.70;;;39.00;;
61471;SDS011;47337;54.068;12.114;2022-08-19T04:03:55;66.65;;;36.92;;
61471;SDS011;47337;54.068;12.114;2022-08-19T04:06:29;66.45;;;37.13;;
61471;SDS011;47337;54.068;12.114;2022-08-19T04:08:56;68.22;;;38.42;;
61471;SDS011;47337;54.068;12.114;2022-08-19T04:11:27;66.53;;;37.92;;
61471;SDS011;47337;54.068;12.114;2022-08-19T04:13:55;74.88;;;39.10;;
61471;SDS011;47337;54.068;12.114;2022-08-19T04:16:22;64.07;;;36.35;;
61471;SDS011;47337;54.068;12.114;2022-08-19T04:18:49;77.45;;;37.15;;
61471;SDS011;47337;54.068;12.114;2022-08-19T04:21:16;66.35;;;36.63;;
61471;SDS011;47337;54.068;12.114;2022-08-19T04:23:43;69.13;;;38.80;;
61471;SDS011;47337;54.068;12.114;2022-08-19T04:26:13;68.80;;;38.33;;
61471;SDS011;47337;54.068;12.114;2022-08-19T04:28:40;74.88;;;38.15;;
61471;SDS011;47337;54.068;12.114;2022-08-19T04:31:11;71.40;;;38.40;;
61471;SDS011;47337;54.068;12.114;2022-08-19T04:33:44;72.65;;;37.55;;
61471;SDS011;47337;54.068;12.114;2022-08-19T04:36:20;77.45;;;38.97;;
61471;SDS011;47337;54.068;12.114;2022-08-19T04:38:48;76.50;;;39.70;;
61471;SDS011;47337;54.068;12.114;2022-08-19T04:41:14;83.38;;;42.28;;
61471;SDS011;47337;54.068;12.114;2022-08-19T04:43:59;78.00;;;40.00;;
61471;SDS011;47337;54.068;12.114;2022-08-19T04:46:27;71.45;;;38.22;;
61471;SDS011;47337;54.068;12.114;2022-08-19T04:48:54;76.53;;;40.47;;
61471;SDS011;47337;54.068;12.114;2022-08-19T04:51:21;78.80;;;39.17;;
61471;SDS011;47337;54.068;12.114;2022-08-19T04:53:47;77.18;;;39.25;;
61471;SDS011;47337;54.068;12.114;2022-08-19T04:56:16;71.00;;;36.60;;
61471;SDS011;47337;54.068;12.114;2022-08-19T04:58:44;80.70;;;42.60;;
61471;SDS011;47337;54.068;12.114;2022-08-19T05:01:13;79.03;;;40.28;;
61471;SDS011;47337;54.068;12.114;2022-08-19T05:03:41;86.57;;;41.25;;
61471;SDS011;47337;54.068;12.114;2022-08-19T05:06:11;85.15;;;41.75;;
61471;SDS011;47337;54.068;12.114;2022-08-19T05:08:38;75.00;;;40.17;;
61471;SDS011;47337;54.068;12.114;2022-08-19T05:11:11;72.53;;;38.80;;
61471;SDS011;47337;54.068;12.114;2022-08-19T05:13:55;74.15;;;37.47;;
61471;SDS011;47337;54.068;12.114;2022-08-19T05:16:22;73.32;;;38.85;;
61471;SDS011;47337;54.068;12.114;2022-08-19T05:18:48;70.93;;;37.60;;
61471;SDS011;47337;54.068;12.114;2022-08-19T05:21:33;74.65;;;38.85;;
61471;SDS011;47337;54.068;12.114;2022-08-19T05:24:19;66.75;;;36.13;;
61471;SDS011;47337;54.068;12.114;2022-08-19T05:26:46;65.45;;;36.22;;
61471;SDS011;47337;54.068;12.114;2022-08-19T05:29:13;67.15;;;33.83;;
61471;SDS011;47337;54.068;12.114;2022-08-19T05:31:43;72.03;;;35.78;;
61471;SDS011;47337;54.068;12.114;2022-08-19T05:34:09;66.93;;;36.22;;
61471;SDS011;47337;54.068;12.114;2022-08-19T05:36:36;61.97;;;35.80;;
61471;SDS011;47337;54.068;12.114;2022-08-19T05:39:07;61.08;;;36.15;;
61471;SDS011;47337;54.068;12.114;2022-08-19T05:41:33;68.53;;;35.50;;
61471;SDS011;47337;54.068;12.114;2022-08-19T05:44:04;67.40;;;34.42;;
61471;SDS011;47337;54.068;12.114;2022-08-19T05:46:34;59.65;;;35.05;;
61471;SDS011;47337;54.068;12.114;2022-08-19T05:49:06;60.85;;;33.63;;
61471;SDS011;47337;54.068;12.114;2022-08-19T05:51:33;68.88;;;35.53;;
61471;SDS011;47337;54.068;12.114;2022-08-19T05:54:03;59.28;;;34.42;;
61471;SDS011;47337;54.068;12.114;2022-08-19T05:56:30;61.60;;;35.05;;
61471;SDS011;47337;54.068;12.114;2022-08-19T05:58:56;65.07;;;34.08;;
61471;SDS011;47337;54.068;12.114;2022-08-19T06:01:23;58.05;;;33.47;;
61471;SDS011;47337;54.068;12.114;2022-08-19T06:03:50;58.60;;;34.13;;
61471;SDS011;47337;54.068;12.114;2022-08-19T06:06:16;66.65;;;34.15;;
61471;SDS011;47337;54.068;12.114;2022-08-19T06:08:42;56.45;;;33.13;;
61471;SDS011;47337;54.068;12.114;2022-08-19T06:14:04;59.72;;;35.30;;
61471;SDS011;47337;54.068;12.114;2022-08-19T06:16:33;68.95;;;32.97;;
61471;SDS011;47337;54.068;12.114;2022-08-19T06:19:04;66.57;;;32.22;;
61471;SDS011;47337;54.068;12.114;2022-08-19T06:21:33;56.97;;;33.90;;
61471;SDS011;47337;54.068;12.114;2022-08-19T06:24:00;60.75;;;33.33;;
61471;SDS011;47337;54.068;12.114;2022-08-19T06:26:25;60.38;;;34.22;;
61471;SDS011;47337;54.068;12.114;2022-08-19T06:28:52;65.03;;;34.75;;
61471;SDS011;47337;54.068;12.114;2022-08-19T06:31:20;59.30;;;35.33;;
61471;SDS011;47337;54.068;12.114;2022-08-19T06:33:48;58.00;;;33.60;;
61471;SDS011;47337;54.068;12.114;2022-08-19T06:36:18;62.42;;;34.15;;
61471;SDS011;47337;54.068;12.114;2022-08-19T06:39:02;61.63;;;33.80;;
61471;SDS011;47337;54.068;12.114;2022-08-19T06:41:34;57.53;;;34.17;;
61471;SDS011;47337;54.068;12.114;2022-08-19T06:44:04;63.05;;;32.88;;
61471;SDS011;47337;54.068;12.114;2022-08-19T06:46:30;66.05;;;33.70;;
61471;SDS011;47337;54.068;12.114;2022-08-19T06:48:56;59.08;;;34.28;;
61471;SDS011;47337;54.068;12.114;2022-08-19T06:51:25;55.92;;;33.45;;
61471;SDS011;47337;54.068;12.114;2022-08-19T06:53:54;62.50;;;35.47;;
61471;SDS011;47337;54.068;12.114;2022-08-19T06:56:21;60.15;;;34.35;;
61471;SDS011;47337;54.068;12.114;2022-08-19T06:58:50;64.05;;;35.25;;
61471;SDS011;47337;54.068;12.114;2022-08-19T07:01:17;63.58;;;35.67;;
61471;SDS011;47337;54.068;12.114;2022-08-19T07:03:46;67.53;;;36.40;;
61471;SDS011;47337;54.068;12.114;2022-08-19T07:06:13;63.95;;;35.35;;
61471;SDS011;47337;54.068;12.114;2022-08-19T07:08:43;73.78;;;37.30;;
61471;SDS011;47337;54.068;12.114;2022-08-19T07:11:11;67.80;;;37.67;;
61471;SDS011;47337;54.068;12.114;2022-08-19T07:13:39;72.78;;;36.70;;
61471;SDS011;47337;54.068;12.114;2022-08-19T07:16:08;68.05;;;36.53;;
61471;SDS011;47337;54.068;12.114;2022-08-19T07:18:36;73.65;;;37.47;;
61471;SDS011;47337;54.068;12.114;2022-08-19T07:21:24;70.65;;;37.10;;
61471;SDS011;47337;54.068;12.114;2022-08-19T07:23:51;72.60;;;37.42;;
61471;SDS011;47337;54.068;12.114;2022-08-19T07:28:47;79.40;;;39.15;;
61471;SDS011;47337;54.068;12.114;2022-08-19T07:31:17;81.15;;;38.97;;
61471;SDS011;47337;54.068;12.114;2022-08-19T07:33:45;81.68;;;41.55;;
61471;SDS011;47337;54.068;12.114;2022-08-19T07:36:13;73.20;;;39.03;;
61471;SDS011;47337;54.068;12.114;2022-08-19T07:38:43;72.50;;;38.33;;
61471;SDS011;47337;54.068;12.114;2022-08-19T07:41:11;74.68;;;38.25;;
61471;SDS011;47337;54.068;12.114;2022-08-19T07:43:39;81.07;;;38.85;;
61471;SDS011;47337;54.068;12.114;2022-08-19T07:46:05;71.45;;;38.38;;
61471;SDS011;47337;54.068;12.114;2022-08-19T07:48:31;73.45;;;37.55;;
61471;SDS011;47337;54.068;12.114;2022-08-19T07:51:02;75.72;;;38.30;;
61471;SDS011;47337;54.068;12.114;2022-08-19T07:53:32;81.13;;;39.95;;
61471;SDS011;47337;54.068;12.114;2022-08-19T07:55:58;79.30;;;40.20;;
61471;SDS011;47337;54.068;12.114;2022-08-19T07:58:29;83.07;;;39.95;;
61471;SDS011;47337;54.068;12.114;2022-08-19T08:00:56;72.68;;;37.50;;
61471;SDS011;47337;54.068;12.114;2022-08-19T08:03:22;72.25;;;37.13;;
61471;SDS011;47337;54.068;12.114;2022-08-19T08:06:11;65.60;;;36.45;;
61471;SDS011;47337;54.068;12.114;2022-08-19T08:08:56;68.43;;;34.70;;
61471;SDS011;47337;54.068;12.114;2022-08-19T08:11:37;64.75;;;33.75;;
61471;SDS011;47337;54.068;12.114;2022-08-19T08:14:05;66.75;;;33.45;;
61471;SDS011;47337;54.068;12.114;2022-08-19T08:16:35;60.35;;;34.13;;
61471;SDS011;47337;54.068;12.114;2022-08-19T08:19:04;64.82;;;35.03;;
61471;SDS011;47337;54.068;12.114;2022-08-19T08:21:31;62.95;;;34.53;;
61471;SDS011;47337;54.068;12.114;2022-08-19T08:23:57;63.83;;;33.42;;
61471;SDS011;47337;54.068;12.114;2022-08-19T08:26:25;64.30;;;33.50;;
61471;SDS011;47337;54.068;12.114;2022-08-19T08:28:53;60.50;;;33.78;;
61471;SDS011;47337;54.068;12.114;2022-08-19T08:31:19;60.72;;;34.40;;
61471;SDS011;47337;54.068;12.114;2022-08-19T08:33:45;64.38;;;32.05;;
61471;SDS011;47337;54.068;12.114;2022-08-19T08:36:11;58.58;;;32.92;;
61471;SDS011;47337;54.068;12.114;2022-08-19T08:38:38;58.03;;;33.78;;
61471;SDS011;47337;54.068;12.114;2022-08-19T08:41:51;62.78;;;33.80;;
61471;SDS011;47337;54.068;12.114;2022-08-19T08:43:55;64.40;;;34.70;;
61471;SDS011;47337;54.068;12.114;2022-08-19T08:52:06;58.70;;;32.92;;
61471;SDS011;47337;54.068;12.114;2022-08-19T08:54:40;56.70;;;32.85;;
61471;SDS011;47337;54.068;12.114;2022-08-19T08:57:14;50.17;;;31.90;;
61471;SDS011;47337;54.068;12.114;2022-08-19T08:59:47;56.50;;;31.52;;
61471;SDS011;47337;54.068;12.114;2022-08-19T09:02:19;55.60;;;32.15;;
61471;SDS011;47337;54.068;12.114;2022-08-19T09:04:45;63.38;;;34.22;;
61471;SDS011;47337;54.068;12.114;2022-08-19T09:09:43;64.55;;;35.80;;
61471;SDS011;47337;54.068;12.114;2022-08-19T09:12:25;62.90;;;35.55;;
61471;SDS011;47337;54.068;12.114;2022-08-19T09:15:07;66.25;;;34.75;;
61471;SDS011;47337;54.068;12.114;2022-08-19T09:17:38;60.05;;;35.08;;
61471;SDS011;47337;54.068;12.114;2022-08-19T09:20:12;61.95;;;35.45;;
61471;SDS011;47337;54.068;12.114;2022-08-19T09:22:43;58.03;;;34.40;;
61471;SDS011;47337;54.068;12.114;2022-08-19T09:25:15;60.08;;;33.92;;
61471;SDS011;47337;54.068;12.114;2022-08-19T09:27:46;56.78;;;32.50;;
61471;SDS011;47337;54.068;12.114;2022-08-19T09:30:16;55.20;;;32.90;;
61471;SDS011;47337;54.068;12.114;2022-08-19T09:32:47;53.72;;;31.25;;
61471;SDS011;47337;54.068;12.114;2022-08-19T09:35:14;51.53;;;31.48;;
61471;SDS011;47337;54.068;12.114;2022-08-19T09:37:40;55.13;;;33.70;;
61471;SDS011;47337;54.068;12.114;2022-08-19T09:40:07;51.92;;;32.10;;
61471;SDS011;47337;54.068;12.114;2022-08-19T09:42:36;51.08;;;32.50;;
61471;SDS011;47337;54.068;12.114;2022-08-19T09:45:03;52.05;;;29.75;;
61471;SDS011;47337;54.068;12.114;2022-08-19T09:47:29;51.42;;;30.73;;
61471;SDS011;47337;54.068;12.114;2022-08-19T09:49:54;48.08;;;30.85;;
61471;SDS011;47337;54.068;12.114;2022-08-19T09:52:20;42.92;;;28.63;;
61471;SDS011;47337;54.068;12.114;2022-08-19T09:54:45;46.35;;;29.33;;
61471;SDS011;47337;54.068;12.114;2022-08-19T09:57:13;45.38;;;28.55;;
61471;SDS011;47337;54.068;12.114;2022-08-19T09:59:39;44.47;;;30.52;;
61471;SDS011;47337;54.068;12.114;2022-08-19T10:02:05;41.17;;;28.38;;
61471;SDS011;47337;54.068;12.114;2022-08-19T10:04:30;39.25;;;26.70;;
61471;SDS011;47337;54.068;12.114;2022-08-19T10:07:18;37.55;;;26.65;;
61471;SDS011;47337;54.068;12.114;2022-08-19T10:09:47;39.78;;;25.88;;
61471;SDS011;47337;54.068;12.114;2022-08-19T10:12:12;38.88;;;25.50;;
61471;SDS011;47337;54.068;12.114;2022-08-19T10:14:40;39.55;;;25.50;;
61471;SDS011;47337;54.068;12.114;2022-08-19T10:17:05;40.38;;;25.85;;
61471;SDS011;47337;54.068;12.114;2022-08-19T10:19:31;41.63;;;27.55;;
61471;SDS011;47337;54.068;12.114;2022-08-19T10:22:02;45.55;;;28.88;;
61471;SDS011;47337;54.068;12.114;2022-08-19T10:24:29;45.08;;;29.27;;
61471;SDS011;47337;54.068;12.114;2022-08-19T10:26:56;46.72;;;29.67;;
61471;SDS011;47337;54.068;12.114;2022-08-19T10:29:22;48.20;;;30.75;;
61471;SDS011;47337;54.068;12.114;2022-08-19T10:31:47;45.63;;;30.20;;
61471;SDS011;47337;54.068;12.114;2022-08-19T10:34:15;42.78;;;30.00;;
61471;SDS011;47337;54.068;12.114;2022-08-19T10:36:42;42.85;;;29.98;;
61471;SDS011;47337;54.068;12.114;2022-08-19T10:39:08;43.95;;;30.20;;
61471;SDS011;47337;54.068;12.114;2022-08-19T10:41:36;42.60;;;29.50;;
61471;SDS011;47337;54.068;12.114;2022-08-19T10:44:04;38.08;;;28.83;;
61471;SDS011;47337;54.068;12.114;2022-08-19T10:46:35;39.50;;;28.67;;
61471;SDS011;47337;54.068;12.114;2022-08-19T10:49:06;36.00;;;26.40;;
61471;SDS011;47337;54.068;12.114;2022-08-19T10:51:33;37.50;;;28.17;;
61471;SDS011;47337;54.068;12.114;2022-08-19T10:54:18;41.45;;;29.17;;
61471;SDS011;47337;54.068;12.114;2022-08-19T10:56:44;38.33;;;28.75;;
61471;SDS011;47337;54.068;12.114;2022-08-19T10:59:22;41.00;;;27.85;;
61471;SDS011;47337;54.068;12.114;2022-08-19T11:01:52;37.90;;;27.95;;
61471;SDS011;47337;54.068;12.114;2022-08-19T11:04:19;38.15;;;28.85;;
61471;SDS011;47337;54.068;12.114;2022-08-19T11:06:47;37.45;;;28.10;;
61471;SDS011;47337;54.068;12.114;2022-08-19T11:09:14;39.10;;;27.98;;
61471;SDS011;47337;54.068;12.114;2022-08-19T11:11:42;37.70;;;28.63;;
61471;SDS011;47337;54.068;12.114;2022-08-19T11:14:08;42.65;;;28.60;;
61471;SDS011;47337;54.068;12.114;2022-08-19T11:16:41;39.58;;;28.42;;
61471;SDS011;47337;54.068;12.114;2022-08-19T11:19:08;36.35;;;27.45;;
61471;SDS011;47337;54.068;12.114;2022-08-19T11:21:35;38.55;;;27.70;;
61471;SDS011;47337;54.068;12.114;2022-08-19T11:24:05;36.20;;;27.42;;
61471;SDS011;47337;54.068;12.114;2022-08-19T11:26:33;39.28;;;28.23;;
61471;SDS011;47337;54.068;12.114;2022-08-19T11:28:59;33.53;;;25.70;;
61471;SDS011;47337;54.068;12.114;2022-08-19T11:31:26;39.25;;;27.92;;
61471;SDS011;47337;54.068;12.114;2022-08-19T11:33:57;37.42;;;28.42;;
61471;SDS011;47337;54.068;12.114;2022-08-19T11:36:24;35.10;;;26.95;;
61471;SDS011;47337;54.068;12.114;2022-08-19T11:38:50;35.35;;;27.05;;
61471;SDS011;47337;54.068;12.114;2022-08-19T11:41:17;34.47;;;25.30;;
61471;SDS011;47337;54.068;12.114;2022-08-19T11:43:45;34.47;;;26.23;;
61471;SDS011;47337;54.068;12.114;2022-08-19T11:46:11;38.15;;;26.90;;
61471;SDS011;47337;54.068;12.114;2022-08-19T11:48:41;35.05;;;26.40;;
61471;SDS011;47337;54.068;12.114;2022-08-19T11:51:08;35.65;;;27.27;;
61471;SDS011;47337;54.068;12.114;2022-08-19T11:53:37;36.70;;;26.48;;
61471;SDS011;47337;54.068;12.114;2022-08-19T11:56:06;35.53;;;26.88;;
61471;SDS011;47337;54.068;12.114;2022-08-19T11:58:33;34.67;;;26.02;;
61471;SDS011;47337;54.068;12.114;2022-08-19T12:00:59;33.85;;;25.10;;
61471;SDS011;47337;54.068;12.114;2022-08-19T12:03:25;35.30;;;26.00;;
61471;SDS011;47337;54.068;12.114;2022-08-19T12:05:51;40.58;;;27.50;;
61471;SDS011;47337;54.068;12.114;2022-08-19T12:08:19;33.30;;;26.52;;
61471;SDS011;47337;54.068;12.114;2022-08-19T12:10:47;42.92;;;29.08;;
61471;SDS011;47337;54.068;12.114;2022-08-19T12:13:13;43.25;;;29.23;;
61471;SDS011;47337;54.068;12.114;2022-08-19T12:15:45;44.00;;;29.85;;
61471;SDS011;47337;54.068;12.114;2022-08-19T12:18:11;41.08;;;29.23;;
61471;SDS011;47337;54.068;12.114;2022-08-19T12:20:39;41.22;;;29.50;;
61471;SDS011;47337;54.068;12.114;2022-08-19T12:23:08;41.20;;;30.17;;
61471;SDS011;47337;54.068;12.114;2022-08-19T12:25:36;42.60;;;29.60;;
61471;SDS011;47337;54.068;12.114;2022-08-19T12:28:02;43.08;;;30.40;;
61471;SDS011;47337;54.068;12.114;2022-08-19T12:30:28;38.50;;;29.23;;
61471;SDS011;47337;54.068;12.114;2022-08-19T12:33:00;41.13;;;28.63;;
61471;SDS011;47337;54.068;12.114;2022-08-19T12:35:25;40.40;;;29.25;;
61471;SDS011;47337;54.068;12.114;2022-08-19T12:37:50;39.40;;;29.25;;
61471;SDS011;47337;54.068;12.114;2022-08-19T12:40:16;42.65;;;28.38;;
61471;SDS011;47337;54.068;12.114;2022-08-19T12:42:44;39.35;;;27.45;;
61471;SDS011;47337;54.068;12.114;2022-08-19T12:45:13;38.05;;;28.02;;
61471;SDS011;47337;54.068;12.114;2022-08-19T12:47:39;36.17;;;27.45;;
61471;SDS011;47337;54.068;12.114;2022-08-19T12:50:05;33.03;;;24.60;;
61471;SDS011;47337;54.068;12.114;2022-08-19T12:52:34;33.58;;;24.45;;
61471;SDS011;47337;54.068;12.114;2022-08-19T12:55:02;34.25;;;26.58;;
61471;SDS011;47337;54.068;12.114;2022-08-19T12:57:31;32.50;;;25.15;;
61471;SDS011;47337;54.068;12.114;2022-08-19T13:00:09;32.70;;;25.15;;
61471;SDS011;47337;54.068;12.114;2022-08-19T13:02:40;34.83;;;23.98;;
61471;SDS011;47337;54.068;12.114;2022-08-19T13:05:11;29.85;;;22.80;;
61471;SDS011;47337;54.068;12.114;2022-08-19T13:07:42;30.90;;;24.30;;
61471;SDS011;47337;54.068;12.114;2022-08-19T13:10:12;28.55;;;22.98;;
61471;SDS011;47337;54.068;12.114;2022-08-19T13:12:44;30.23;;;24.10;;
61471;SDS011;47337;54.068;12.114;2022-08-19T13:15:12;32.55;;;23.38;;
61471;SDS011;47337;54.068;12.114;2022-08-19T13:17:39;32.47;;;23.65;;
61471;SDS011;47337;54.068;12.114;2022-08-19T13:20:05;32.45;;;24.17;;
61471;SDS011;47337;54.068;12.114;2022-08-19T13:22:33;30.42;;;24.55;;
61471;SDS011;47337;54.068;12.114;2022-08-19T13:25:00;31.33;;;23.88;;
61471;SDS011;47337;54.068;12.114;2022-08-19T13:27:26;31.98;;;23.88;;
61471;SDS011;47337;54.068;12.114;2022-08-19T13:29:51;28.92;;;22.83;;
61471;SDS011;47337;54.068;12.114;2022-08-19T13:32:35;29.05;;;21.40;;
61471;SDS011;47337;54.068;12.114;2022-08-19T13:35:19;26.55;;;21.40;;
61471;SDS011;47337;54.068;12.114;2022-08-19T13:37:44;26.85;;;21.63;;
61471;SDS011;47337;54.068;12.114;2022-08-19T13:40:14;28.60;;;22.23;;
61471;SDS011;47337;54.068;12.114;2022-08-19T13:45:12;25.00;;;20.80;;
61471;SDS011;47337;54.068;12.114;2022-08-19T13:47:39;26.45;;;21.08;;
61471;SDS011;47337;54.068;12.114;2022-08-19T13:50:08;25.23;;;20.77;;
61471;SDS011;47337;54.068;12.114;2022-08-19T13:52:36;23.58;;;19.75;;
61471;SDS011;47337;54.068;12.114;2022-08-19T13:55:02;24.98;;;19.83;;
61471;SDS011;47337;54.068;12.114;2022-08-19T13:57:28;25.27;;;20.25;;
61471;SDS011;47337;54.068;12.114;2022-08-19T13:59:53;27.70;;;21.70;;
61471;SDS011;47337;54.068;12.114;2022-08-19T14:02:19;30.40;;;22.50;;
61471;SDS011;47337;54.068;12.114;2022-08-19T14:04:45;28.73;;;21.60;;
61471;SDS011;47337;54.068;12.114;2022-08-19T14:07:10;27.17;;;21.35;;
61471;SDS011;47337;54.068;12.114;2022-08-19T14:09:36;24.58;;;21.08;;
61471;SDS011;47337;54.068;12.114;2022-08-19T14:12:01;25.83;;;21.58;;
61471;SDS011;47337;54.068;12.114;2022-08-19T14:14:27;25.70;;;21.45;;
61471;SDS011;47337;54.068;12.114;2022-08-19T14:16:54;25.42;;;20.92;;
61471;SDS011;47337;54.068;12.114;2022-08-19T14:19:22;25.08;;;21.10;;
61471;SDS011;47337;54.068;12.114;2022-08-19T14:21:48;29.95;;;22.73;;
61471;SDS011;47337;54.068;12.114;2022-08-19T14:24:13;30.42;;;23.27;;
61471;SDS011;47337;54.068;12.114;2022-08-19T14:26:38;29.95;;;22.17;;
61471;SDS011;47337;54.068;12.114;2022-08-19T14:29:04;28.10;;;23.05;;
61471;SDS011;47337;54.068;12.114;2022-08-19T14:31:29;30.20;;;23.35;;
61471;SDS011;47337;54.068;12.114;2022-08-19T14:33:57;26.60;;;22.38;;
61471;SDS011;47337;54.068;12.114;2022-08-19T14:36:25;24.65;;;20.70;;